Time;durP1;ratioP1;P1;durP2;ratioP2;P2;SDS_P1;SDS_P2;PMS_P1;PMS_P2;Temp;Humidity;BMP_temperature;BMP_pressure;BME280_temperature;BME280_humidity;BME280_pressure;Samples;Min_cycle;Max_cycle;Signal;HPM_P1;HPM_P2
2021/05/08 00:01:39;;;;;;;2.07;1.97;;;7.40;99.90;;;;;;6348889;27;20487;-56
2021/05/08 00:04:42;;;;;;;3.70;2.60;;;7.40;99.90;;;;;;6347544;27;20468;-57
2021/05/08 00:07:45;;;;;;;4.47;2.60;;;7.50;99.90;;;;;;6346979;27;20481;-57
2021/05/08 00:10:47;;;;;;;2.97;2.67;;;7.50;99.90;;;;;;6346604;27;20478;-58
2021/05/08 00:13:49;;;;;;;3.47;2.70;;;7.40;99.90;;;;;;6348459;27;20933;-57
2021/05/08 00:16:52;;;;;;;2.53;2.33;;;7.40;99.90;;;;;;6352418;27;20477;-57
2021/05/08 00:19:55;;;;;;;2.73;2.30;;;7.40;99.90;;;;;;6353938;27;20467;-57
2021/05/08 00:22:58;;;;;;;2.40;2.30;;;7.40;99.90;;;;;;6353814;27;20452;-57
2021/05/08 00:26:02;;;;;;;2.33;2.13;;;7.40;99.90;;;;;;6353274;27;20814;-57
2021/05/08 00:29:05;;;;;;;3.27;2.40;;;7.40;99.90;;;;;;6353615;27;20547;-57
2021/05/08 00:32:08;;;;;;;3.17;2.87;;;7.30;99.90;;;;;;6344321;27;20906;-59
2021/05/08 00:35:10;;;;;;;4.60;2.90;;;7.20;99.90;;;;;;6329973;28;20487;-57
2021/05/08 00:38:12;;;;;;;2.90;2.70;;;7.10;99.90;;;;;;6346639;27;20479;-56
2021/05/08 00:41:15;;;;;;;2.97;2.77;;;7.10;99.90;;;;;;6350423;27;20475;-56
2021/05/08 00:44:17;;;;;;;3.10;2.90;;;7.20;99.90;;;;;;6350317;27;21161;-57
2021/05/08 00:47:22;;;;;;;3.20;2.63;;;7.10;99.90;;;;;;6350434;27;20956;-57
2021/05/08 00:50:24;;;;;;;2.80;2.60;;;7.00;99.90;;;;;;6345509;27;21070;-57
2021/05/08 00:53:27;;;;;;;3.07;2.60;;;7.00;99.90;;;;;;6338741;27;20559;-57
2021/05/08 00:56:29;;;;;;;3.50;3.20;;;7.10;99.90;;;;;;6327183;28;20817;-57
2021/05/08 00:59:31;;;;;;;2.77;2.50;;;7.00;99.90;;;;;;6327255;28;20993;-56
2021/05/08 01:02:35;;;;;;;3.80;2.90;;;7.00;99.90;;;;;;6332958;28;20459;-56
2021/05/08 01:05:38;;;;;;;3.20;2.83;;;6.90;99.90;;;;;;6346083;27;20953;-57
2021/05/08 01:08:40;;;;;;;3.00;2.80;;;6.80;99.90;;;;;;6340382;27;20471;-56
2021/05/08 01:11:43;;;;;;;4.47;3.00;;;6.70;99.90;;;;;;6334298;28;21091;-57
2021/05/08 01:14:45;;;;;;;2.63;2.40;;;6.60;99.90;;;;;;6336346;27;20463;-60
2021/05/08 01:17:49;;;;;;;3.00;2.70;;;6.70;99.90;;;;;;6337503;27;20482;-57
2021/05/08 01:20:52;;;;;;;3.27;2.60;;;6.70;99.90;;;;;;6337469;28;20467;-57
2021/05/08 01:23:55;;;;;;;2.83;2.53;;;6.70;99.90;;;;;;6351317;27;20478;-56
2021/05/08 01:26:58;;;;;;;2.83;2.63;;;6.70;99.90;;;;;;6351895;27;20479;-61
2021/05/08 01:30:00;;;;;;;3.43;2.57;;;6.70;99.90;;;;;;6351798;27;20616;-61
2021/05/08 01:33:03;;;;;;;2.93;2.73;;;6.70;99.90;;;;;;6351643;27;21074;-57
2021/05/08 01:36:05;;;;;;;3.70;3.40;;;6.60;99.90;;;;;;6351821;27;20472;-60
2021/05/08 01:39:09;;;;;;;4.13;3.70;;;6.60;99.90;;;;;;6337790;27;20967;-69
2021/05/08 01:42:11;;;;;;;7.20;2.50;;;6.70;99.90;;;;;;6351753;27;20528;-69
2021/05/08 01:45:16;;;;;;;4.00;2.40;;;6.60;99.90;;;;;;6351444;27;20471;-57
2021/05/08 01:48:18;;;;;;;2.63;2.40;;;6.60;99.90;;;;;;6351822;27;20475;-60
2021/05/08 01:51:20;;;;;;;2.70;2.50;;;6.60;99.90;;;;;;6351740;27;20486;-68
2021/05/08 01:54:24;;;;;;;3.73;2.53;;;6.50;99.90;;;;;;6351767;27;20474;-60
2021/05/08 01:57:26;;;;;;;2.50;2.30;;;6.50;99.90;;;;;;6350958;27;20471;-60
2021/05/08 02:00:30;;;;;;;3.07;2.80;;;6.40;99.90;;;;;;6351360;27;20485;-60
2021/05/08 02:03:32;;;;;;;4.13;2.93;;;6.40;99.90;;;;;;6351043;27;20463;-56
2021/05/08 02:06:35;;;;;;;2.67;2.47;;;6.50;99.90;;;;;;6351087;27;20463;-61
2021/05/08 02:09:38;;;;;;;2.50;2.30;;;6.40;99.90;;;;;;6350986;27;20801;-56
2021/05/08 02:12:40;;;;;;;3.10;2.80;;;6.40;99.90;;;;;;6351102;27;20494;-61
2021/05/08 02:15:43;;;;;;;2.87;2.67;;;6.30;99.90;;;;;;6350904;27;20550;-60
2021/05/08 02:18:45;;;;;;;3.13;2.93;;;6.30;99.90;;;;;;6350600;27;20789;-56
2021/05/08 02:21:48;;;;;;;2.97;2.67;;;6.30;99.90;;;;;;6350767;27;20471;-60
2021/05/08 02:24:51;;;;;;;2.77;2.57;;;6.40;99.90;;;;;;6350556;27;20856;-62
2021/05/08 02:27:54;;;;;;;2.93;2.73;;;6.30;99.90;;;;;;6350616;27;20468;-61
2021/05/08 02:30:56;;;;;;;2.60;2.40;;;6.20;99.90;;;;;;6350049;27;20483;-57
2021/05/08 02:33:59;;;;;;;2.97;2.67;;;6.20;99.90;;;;;;6349992;27;20479;-60
2021/05/08 02:37:01;;;;;;;3.20;2.90;;;6.10;99.90;;;;;;6350011;27;20447;-57
2021/05/08 02:40:06;;;;;;;3.10;2.90;;;6.10;99.90;;;;;;6341267;27;20456;-68
2021/05/08 02:43:09;;;;;;;3.10;2.60;;;6.00;99.90;;;;;;6351242;27;20885;-68
2021/05/08 02:46:11;;;;;;;3.37;3.07;;;5.90;99.90;;;;;;6350912;27;20781;-60
2021/05/08 02:49:13;;;;;;;3.40;3.10;;;6.00;99.90;;;;;;6350522;27;20435;-61
2021/05/08 02:52:16;;;;;;;3.20;2.90;;;6.00;99.90;;;;;;6350233;27;20566;-68
2021/05/08 02:55:20;;;;;;;3.40;2.90;;;6.00;99.90;;;;;;6351192;27;20436;-68
2021/05/08 02:58:22;;;;;;;3.20;2.60;;;6.00;99.90;;;;;;6352592;27;20462;-68
2021/05/08 03:01:24;;;;;;;3.47;3.17;;;5.90;99.90;;;;;;6352195;27;20467;-68
2021/05/08 03:04:26;;;;;;;4.00;3.00;;;5.90;99.90;;;;;;6349764;27;20455;-60
2021/05/08 03:07:28;;;;;;;5.10;2.80;;;5.90;99.90;;;;;;6350296;27;20459;-60
2021/05/08 03:10:31;;;;;;;2.77;2.57;;;5.90;99.90;;;;;;6349575;27;20490;-60
2021/05/08 03:13:33;;;;;;;2.93;2.63;;;5.90;99.90;;;;;;6349820;27;20975;-60
2021/05/08 03:16:38;;;;;;;4.07;3.47;;;5.80;99.90;;;;;;6349310;27;20615;-56
2021/05/08 03:19:40;;;;;;;3.60;3.30;;;5.80;99.90;;;;;;6349599;27;20609;-60
2021/05/08 03:22:43;;;;;;;4.20;3.20;;;5.70;99.90;;;;;;6349584;27;20799;-60
2021/05/08 03:25:46;;;;;;;2.83;2.63;;;5.70;99.90;;;;;;6349287;27;20473;-60
2021/05/08 03:28:48;;;;;;;3.87;3.57;;;5.80;99.90;;;;;;6349496;27;20777;-56
2021/05/08 03:31:50;;;;;;;2.97;2.77;;;5.80;99.90;;;;;;6348813;27;20506;-69
2021/05/08 03:34:52;;;;;;;4.87;2.77;;;5.80;99.90;;;;;;6349738;27;20467;-57
2021/05/08 03:37:55;;;;;;;3.00;2.80;;;5.70;99.90;;;;;;6349092;27;20479;-69
2021/05/08 03:40:57;;;;;;;2.83;2.63;;;5.70;99.90;;;;;;6349735;27;20467;-69
2021/05/08 03:44:00;;;;;;;3.77;2.80;;;5.60;99.90;;;;;;6345200;27;20467;-61
2021/05/08 03:47:04;;;;;;;7.63;3.10;;;5.60;99.90;;;;;;6352914;27;20481;-56
2021/05/08 03:50:07;;;;;;;3.10;2.90;;;5.60;99.90;;;;;;6354622;27;20478;-61
2021/05/08 03:53:10;;;;;;;3.03;2.83;;;5.70;99.90;;;;;;6354597;27;20795;-57
2021/05/08 03:56:13;;;;;;;3.33;3.10;;;5.60;99.90;;;;;;6354425;27;20474;-57
2021/05/08 03:59:15;;;;;;;3.13;2.93;;;5.60;99.90;;;;;;6354460;27;20477;-62
2021/05/08 04:02:17;;;;;;;3.13;2.80;;;5.60;99.90;;;;;;6354809;27;20470;-60
2021/05/08 04:05:20;;;;;;;4.70;3.03;;;5.70;99.90;;;;;;6354031;27;20478;-60
2021/05/08 04:08:22;;;;;;;5.47;3.10;;;5.60;99.90;;;;;;6354483;27;20523;-60
2021/05/08 04:11:25;;;;;;;3.00;2.70;;;5.60;99.90;;;;;;6353801;27;20482;-60
2021/05/08 04:14:28;;;;;;;3.27;2.80;;;5.70;99.90;;;;;;6353618;27;20819;-56
2021/05/08 04:17:30;;;;;;;3.70;3.40;;;5.80;99.90;;;;;;6353524;27;20989;-56
2021/05/08 04:20:32;;;;;;;3.53;3.23;;;6.00;99.90;;;;;;6354097;27;20597;-56
2021/05/08 04:23:38;;;;;;;3.63;3.33;;;6.10;99.90;;;;;;6354088;27;20992;-60
2021/05/08 04:26:41;;;;;;;3.67;3.37;;;6.20;99.90;;;;;;6353713;27;20490;-68
2021/05/08 04:29:43;;;;;;;3.10;2.80;;;6.30;99.90;;;;;;6353199;27;20479;-60
2021/05/08 04:32:45;;;;;;;3.27;3.00;;;6.40;99.90;;;;;;6353160;27;20817;-56
2021/05/08 04:35:48;;;;;;;3.67;3.23;;;6.50;99.90;;;;;;6353161;27;20466;-68
2021/05/08 04:38:51;;;;;;;3.50;2.93;;;6.60;99.90;;;;;;6353207;27;20951;-68
2021/05/08 04:41:54;;;;;;;4.03;3.63;;;6.70;99.90;;;;;;6353066;27;20471;-68
2021/05/08 04:44:56;;;;;;;3.23;3.03;;;6.80;99.90;;;;;;6353046;27;20467;-68
2021/05/08 04:47:59;;;;;;;4.47;4.07;;;7.00;99.90;;;;;;6353314;27;20474;-60
2021/05/08 04:51:01;;;;;;;6.20;3.47;;;7.10;99.90;;;;;;6352922;27;20477;-60
2021/05/08 04:54:04;;;;;;;4.10;2.87;;;7.30;99.90;;;;;;6353378;27;20565;-67
2021/05/08 04:57:07;;;;;;;4.53;3.47;;;7.40;99.90;;;;;;6351569;27;20475;-68
2021/05/08 05:00:13;;;;;;;6.43;4.73;;;7.60;99.90;;;;;;6352903;27;20473;-69
2021/05/08 05:03:15;;;;;;;3.80;3.50;;;7.70;99.80;;;;;;6352523;27;20482;-68
2021/05/08 05:06:17;;;;;;;5.27;4.00;;;7.80;99.60;;;;;;6352822;27;20979;-69
2021/05/08 05:09:19;;;;;;;4.37;3.97;;;8.00;99.30;;;;;;6352502;27;20516;-61
2021/05/08 05:12:22;;;;;;;5.13;3.20;;;8.10;99.00;;;;;;6352209;27;20489;-61
2021/05/08 05:15:26;;;;;;;3.20;3.00;;;8.30;98.90;;;;;;6352366;27;20524;-56
2021/05/08 05:18:30;;;;;;;2.93;2.70;;;8.40;98.70;;;;;;6352097;27;20475;-60
2021/05/08 05:21:32;;;;;;;3.17;2.90;;;8.60;98.30;;;;;;6352261;27;20547;-61
2021/05/08 05:24:35;;;;;;;3.60;3.10;;;8.80;98.10;;;;;;6351853;27;20471;-61
2021/05/08 05:27:38;;;;;;;3.00;2.80;;;8.90;97.90;;;;;;6352211;27;20467;-69
2021/05/08 05:30:40;;;;;;;3.27;2.97;;;9.00;97.70;;;;;;6351893;27;20478;-69
2021/05/08 05:33:42;;;;;;;3.00;2.77;;;9.10;97.50;;;;;;6352139;27;20812;-61
2021/05/08 05:36:44;;;;;;;5.00;2.80;;;9.40;97.60;;;;;;6351670;27;20478;-61
2021/05/08 05:39:46;;;;;;;3.30;3.10;;;9.60;97.20;;;;;;6351658;27;20490;-60
2021/05/08 05:42:50;;;;;;;2.63;2.43;;;10.00;95.90;;;;;;6351596;27;20463;-56
2021/05/08 05:45:52;;;;;;;3.97;3.17;;;10.40;95.90;;;;;;6351715;27;20564;-60
2021/05/08 05:48:54;;;;;;;2.77;2.57;;;11.00;94.90;;;;;;6351810;27;20805;-61
2021/05/08 05:51:56;;;;;;;3.83;2.67;;;11.50;93.60;;;;;;6351595;27;20479;-61
2021/05/08 05:54:59;;;;;;;2.60;2.40;;;12.10;92.20;;;;;;6342360;27;20479;-60
2021/05/08 05:58:06;;;;;;;7.53;2.70;;;12.70;90.60;;;;;;6348211;27;20470;-61
2021/05/08 06:01:08;;;;;;;3.80;2.43;;;13.10;89.60;;;;;;6351146;27;20470;-60
2021/05/08 06:04:10;;;;;;;2.60;2.40;;;13.50;85.90;;;;;;6351033;27;20439;-57
2021/05/08 06:07:12;;;;;;;2.70;2.50;;;14.10;81.40;;;;;;6351304;27;20555;-57
2021/05/08 06:10:16;;;;;;;4.17;2.80;;;14.20;78.90;;;;;;6349646;27;20490;-61
2021/05/08 06:13:19;;;;;;;6.03;3.00;;;14.30;78.60;;;;;;6351278;27;20562;-61
2021/05/08 06:16:21;;;;;;;2.90;2.60;;;15.30;76.90;;;;;;6350703;27;20924;-61
2021/05/08 06:19:23;;;;;;;4.67;3.17;;;15.80;71.90;;;;;;6351291;27;20460;-61
2021/05/08 06:22:26;;;;;;;4.43;2.70;;;16.50;68.10;;;;;;6351039;27;20455;-61
2021/05/08 06:25:28;;;;;;;3.93;3.00;;;17.00;63.20;;;;;;6350761;27;20470;-61
2021/05/08 06:28:31;;;;;;;3.27;2.97;;;17.30;62.50;;;;;;6351276;27;20487;-62
2021/05/08 06:31:33;;;;;;;5.40;3.37;;;17.60;62.00;;;;;;6350018;27;20960;-61
2021/05/08 06:34:36;;;;;;;4.13;2.83;;;17.80;60.60;;;;;;6350149;27;20778;-61
2021/05/08 06:37:39;;;;;;;3.23;3.03;;;18.10;59.10;;;;;;6350025;27;20475;-62
2021/05/08 06:40:41;;;;;;;3.50;3.20;;;18.60;58.90;;;;;;6349793;27;20504;-61
2021/05/08 06:43:44;;;;;;;4.13;3.00;;;19.00;57.20;;;;;;6349337;27;20960;-62
2021/05/08 06:46:47;;;;;;;5.03;3.47;;;19.20;56.10;;;;;;6349771;27;20474;-69
2021/05/08 06:49:49;;;;;;;3.80;3.50;;;20.00;55.20;;;;;;6349749;27;20569;-62
2021/05/08 06:52:51;;;;;;;4.47;3.53;;;20.70;53.70;;;;;;6349886;27;20233;-62
2021/05/08 06:55:53;;;;;;;3.90;3.60;;;20.90;52.70;;;;;;6345251;27;20229;-62
2021/05/08 06:58:56;;;;;;;4.40;4.00;;;21.40;51.50;;;;;;6349816;27;20237;-62
2021/05/08 07:01:58;;;;;;;4.63;3.97;;;22.00;51.10;;;;;;6349816;27;20233;-61
2021/05/08 07:05:01;;;;;;;4.53;3.67;;;21.90;48.80;;;;;;6349374;27;20229;-61
2021/05/08 07:08:05;;;;;;;4.77;4.37;;;22.40;47.90;;;;;;6350156;27;20233;-61
2021/05/08 07:11:07;;;;;;;4.53;4.13;;;23.00;47.00;;;;;;6349399;27;20237;-62
2021/05/08 07:14:11;;;;;;;4.73;4.33;;;22.70;46.90;;;;;;6347246;27;20248;-62
2021/05/08 07:17:13;;;;;;;4.77;4.37;;;23.40;46.20;;;;;;6349284;27;20225;-62
2021/05/08 07:20:18;;;;;;;6.50;4.37;;;24.50;44.70;;;;;;6349535;27;20620;-62
2021/05/08 07:23:20;;;;;;;4.90;4.43;;;25.30;42.30;;;;;;6345864;27;20229;-63
2021/05/08 07:26:23;;;;;;;4.43;4.13;;;25.70;40.30;;;;;;6348917;27;20709;-63
2021/05/08 07:29:26;;;;;;;4.53;3.77;;;26.30;39.10;;;;;;6349203;27;20241;-63
2021/05/08 07:32:29;;;;;;;4.87;4.13;;;26.50;38.10;;;;;;6349354;27;20673;-62
2021/05/08 07:35:34;;;;;;;5.47;3.80;;;27.00;36.60;;;;;;6349383;27;20233;-63
2021/05/08 07:38:36;;;;;;;4.07;3.77;;;28.10;35.20;;;;;;6348681;27;20229;-63
2021/05/08 07:41:39;;;;;;;4.47;3.53;;;28.50;33.40;;;;;;6348923;27;20235;-57
2021/05/08 07:44:43;;;;;;;3.50;3.20;;;28.60;32.80;;;;;;6339059;28;20240;-57
2021/05/08 07:47:45;;;;;;;3.53;3.23;;;30.10;31.90;;;;;;6326094;28;20232;-67
2021/05/08 07:50:48;;;;;;;4.30;3.90;;;31.10;30.20;;;;;;6331956;28;20312;-60
2021/05/08 07:53:50;;;;;;;3.43;3.13;;;31.80;30.00;;;;;;6339932;27;20217;-61
2021/05/08 07:56:55;;;;;;;3.27;2.97;;;30.50;29.00;;;;;;6338899;28;20370;-62
2021/05/08 07:59:59;;;;;;;3.10;2.90;;;29.80;30.40;;;;;;6326803;28;20233;-60
2021/05/08 08:03:03;;;;;;;3.60;3.30;;;30.60;29.40;;;;;;6334775;28;20556;-60
2021/05/08 08:06:25;;;;;;;4.20;3.70;;;31.70;29.10;;;;;;6337084;27;20218;-60
2021/05/08 08:09:28;;;;;;;3.53;3.33;;;32.60;28.80;;;;;;6341804;27;20283;-57
2021/05/08 08:12:30;;;;;;;2.92;2.72;;;32.40;28.30;;;;;;6337854;27;20536;-60
2021/05/08 08:15:34;;;;;;;4.90;3.15;;;33.90;27.30;;;;;;6335893;28;20563;-61
2021/05/08 08:18:37;;;;;;;3.85;3.47;;;33.20;26.70;;;;;;6348942;27;20232;-60
2021/05/08 08:21:40;;;;;;;4.40;2.70;;;33.20;27.40;;;;;;6342364;27;20217;-60
2021/05/08 08:24:43;;;;;;;2.15;1.95;;;32.50;26.50;;;;;;6337190;27;20224;-61
2021/05/08 08:27:45;;;;;;;2.63;1.95;;;33.20;23.80;;;;;;6335172;27;20221;-66
2021/05/08 08:30:49;;;;;;;2.28;2.08;;;33.70;23.00;;;;;;6348085;27;20244;-58
2021/05/08 08:33:52;;;;;;;3.00;2.28;;;33.10;22.10;;;;;;6329435;27;20240;-60
2021/05/08 08:36:54;;;;;;;3.60;1.90;;;30.40;23.40;;;;;;6327712;28;20222;-62
2021/05/08 08:39:57;;;;;;;2.63;2.43;;;29.20;25.50;;;;;;6327404;28;20239;-61
2021/05/08 08:42:59;;;;;;;3.00;2.23;;;28.60;25.30;;;;;;6327497;28;20663;-60
2021/05/08 08:46:02;;;;;;;3.10;2.80;;;27.10;26.70;;;;;;6327540;28;20716;-57
2021/05/08 08:49:05;;;;;;;2.80;2.60;;;25.60;29.00;;;;;;6327641;27;20218;-65
2021/05/08 08:52:08;;;;;;;2.80;2.60;;;24.80;30.20;;;;;;6327818;28;20285;-64
2021/05/08 08:55:12;;;;;;;3.57;3.27;;;23.60;32.40;;;;;;6327387;28;20282;-66
2021/05/08 08:58:14;;;;;;;3.00;2.80;;;22.30;33.00;;;;;;6328200;28;20198;-65
2021/05/08 09:01:18;;;;;;;3.40;3.20;;;20.90;36.50;;;;;;6335283;28;20238;-60
2021/05/08 09:04:21;;;;;;;3.00;2.80;;;20.20;36.80;;;;;;6328433;27;20961;-60
2021/05/08 09:07:26;;;;;;;2.90;2.70;;;19.40;38.00;;;;;;6338175;28;20375;-60
2021/05/08 09:10:33;;;;;;;3.40;3.20;;;19.40;39.40;;;;;;6337042;27;20240;-60
2021/05/08 09:13:35;;;;;;;4.10;3.80;;;19.10;40.60;;;;;;6344190;27;20237;-61
2021/05/08 09:17:01;;;;;;;3.43;3.17;;;18.60;43.70;;;;;;6351627;27;20237;-62
2021/05/08 09:20:05;;;;;;;3.63;3.33;;;18.10;45.80;;;;;;6352602;27;20472;-59
2021/05/08 09:23:18;;;;;;;3.87;3.43;;;17.80;45.50;;;;;;6351439;27;20500;-62
2021/05/08 09:26:20;;;;;;;3.73;3.43;;;17.70;43.60;;;;;;6340280;28;20484;-61
2021/05/08 09:29:23;;;;;;;3.73;2.90;;;17.20;45.00;;;;;;6353441;27;20471;-62
2021/05/08 09:32:35;;;;;;;3.63;3.17;;;17.40;46.40;;;;;;6345230;28;20464;-63
2021/05/08 09:35:38;;;;;;;3.10;2.90;;;17.70;45.60;;;;;;6339248;27;20522;-62
2021/05/08 09:38:41;;;;;;;7.30;3.47;;;17.70;44.20;;;;;;6351634;27;20499;-59
2021/05/08 09:41:47;;;;;;;3.17;2.87;;;17.40;44.00;;;;;;6351312;27;20575;-59
2021/05/08 09:44:58;;;;;;;3.47;3.17;;;17.20;45.00;;;;;;6351300;27;20903;-59
2021/05/08 09:48:17;;;;;;;3.00;2.80;;;17.00;45.30;;;;;;6351153;27;20900;-59
2021/05/08 09:51:34;;;;;;;2.80;2.60;;;17.20;42.70;;;;;;6351247;27;20814;-60
2021/05/08 09:54:37;;;;;;;3.63;3.40;;;17.50;42.60;;;;;;6350603;27;20481;-60
2021/05/08 09:57:39;;;;;;;3.43;2.90;;;17.50;43.00;;;;;;6343549;27;20463;-61
2021/05/08 10:00:42;;;;;;;3.23;2.97;;;17.60;43.70;;;;;;6349120;27;20527;-60
2021/05/08 10:03:45;;;;;;;3.67;2.80;;;17.50;43.50;;;;;;6350829;27;20498;-60
2021/05/08 10:07:05;;;;;;;3.60;2.80;;;17.20;42.10;;;;;;6350416;27;20479;-59
2021/05/08 10:10:09;;;;;;;2.83;2.60;;;17.00;42.60;;;;;;6350635;27;20483;-61
2021/05/08 10:13:12;;;;;;;3.93;2.53;;;17.00;42.90;;;;;;6350521;27;20470;-61
2021/05/08 10:16:15;;;;;;;3.70;2.73;;;17.40;41.60;;;;;;6350905;27;20514;-61
2021/05/08 10:19:19;;;;;;;2.60;2.40;;;17.50;40.90;;;;;;6349927;27;20773;-61
2021/05/08 10:22:24;;;;;;;2.63;2.43;;;17.70;41.10;;;;;;6350909;27;20588;-62
2021/05/08 10:25:27;;;;;;;4.63;2.30;;;17.90;41.50;;;;;;6341917;28;20467;-61
2021/05/08 10:28:30;;;;;;;3.37;3.07;;;18.00;41.10;;;;;;6325177;28;20499;-62
2021/05/08 10:31:33;;;;;;;3.20;2.93;;;18.00;42.20;;;;;;6326365;28;20482;-62
2021/05/08 10:34:38;;;;;;;3.40;3.10;;;17.70;43.70;;;;;;6350598;27;20486;-61
2021/05/08 10:38:18;;;;;;;2.53;2.33;;;17.50;42.10;;;;;;6350254;27;20474;-60
2021/05/08 10:41:21;;;;;;;2.03;1.93;;;17.40;41.10;;;;;;6350281;27;20494;-61
2021/05/08 10:44:45;;;;;;;2.27;2.03;;;17.40;40.30;;;;;;6349685;27;20999;-59
2021/05/08 10:48:07;;;;;;;2.80;1.83;;;17.50;39.50;;;;;;6345302;27;20513;-66
2021/05/08 10:51:14;;;;;;;3.37;2.60;;;17.50;38.50;;;;;;6348760;27;20481;-66
2021/05/08 10:54:49;;;;;;;2.90;2.17;;;17.60;40.40;;;;;;6348839;27;20980;-67
2021/05/08 10:58:21;;;;;;;4.93;2.80;;;17.90;40.30;;;;;;6349081;27;20464;-62
2021/05/08 11:01:39;;;;;;;4.17;2.70;;;18.10;40.80;;;;;;6330960;28;20460;-69
2021/05/08 11:05:15;;;;;;;2.43;2.33;;;18.00;39.50;;;;;;6333324;27;20472;-64
2021/05/08 11:08:46;;;;;;;3.70;2.43;;;18.10;39.30;;;;;;6326582;28;20506;-64
2021/05/08 11:11:49;;;;;;;2.80;2.30;;;18.10;40.70;;;;;;6339018;27;20463;-64
2021/05/08 11:14:54;;;;;;;2.77;2.47;;;18.30;40.60;;;;;;6321821;28;20468;-70
2021/05/08 11:18:03;;;;;;;2.50;2.20;;;18.40;39.10;;;;;;6335290;27;20793;-69
2021/05/08 11:21:49;;;;;;;2.23;2.07;;;18.50;39.20;;;;;;6335891;28;20471;-69
2021/05/08 11:24:52;;;;;;;2.50;2.30;;;18.60;37.70;;;;;;6337988;27;20965;-68
2021/05/08 11:28:06;;;;;;;2.27;2.07;;;18.60;38.90;;;;;;6339665;27;20475;-69
2021/05/08 11:31:09;;;;;;;1.90;1.80;;;18.50;38.80;;;;;;6327859;28;20224;-66
2021/05/08 11:34:16;;;;;;;2.50;2.30;;;18.70;38.20;;;;;;6333561;28;20238;-69
2021/05/08 11:37:22;;;;;;;3.00;2.30;;;18.90;38.40;;;;;;6325054;28;20435;-65
2021/05/08 11:40:33;;;;;;;2.10;1.87;;;18.60;38.50;;;;;;6323106;28;20633;-64
2021/05/08 11:43:35;;;;;;;2.30;2.03;;;18.30;39.70;;;;;;6323902;28;20464;-68
2021/05/08 11:46:38;;;;;;;2.57;2.40;;;18.10;39.50;;;;;;6326950;27;20471;-69
2021/05/08 11:49:41;;;;;;;3.77;1.90;;;18.10;39.20;;;;;;6345590;27;20483;-64
2021/05/08 11:52:47;;;;;;;1.90;1.80;;;18.20;39.40;;;;;;6348575;27;20478;-69
2021/05/08 11:55:50;;;;;;;2.07;1.93;;;18.00;38.40;;;;;;6348936;27;20564;-66
2021/05/08 11:58:52;;;;;;;3.30;2.20;;;17.70;38.40;;;;;;6339898;28;20952;-64
2021/05/08 12:02:17;;;;;;;2.20;2.00;;;17.70;37.80;;;;;;6345994;27;20810;-64
2021/05/08 12:05:22;;;;;;;2.17;1.73;;;17.70;37.30;;;;;;6348293;27;20525;-63
2021/05/08 12:08:24;;;;;;;1.70;1.60;;;17.90;37.80;;;;;;6352309;27;20467;-64
2021/05/08 12:11:27;;;;;;;2.23;2.03;;;18.10;38.40;;;;;;6344063;27;20467;-64
2021/05/08 12:14:38;;;;;;;2.20;2.00;;;17.90;38.80;;;;;;6344043;27;20459;-64
2021/05/08 12:17:41;;;;;;;1.80;1.70;;;17.70;39.50;;;;;;6341782;27;20471;-64
2021/05/08 12:20:45;;;;;;;1.73;1.63;;;18.10;39.50;;;;;;6344052;27;20832;-63
2021/05/08 12:23:47;;;;;;;2.60;1.60;;;18.30;38.50;;;;;;6328515;28;20461;-63
2021/05/08 12:26:50;;;;;;;6.43;2.40;;;18.50;38.50;;;;;;6327269;28;20472;-64
2021/05/08 12:29:57;;;;;;;1.87;1.77;;;18.50;38.30;;;;;;6328201;28;20476;-65
2021/05/08 12:32:59;;;;;;;2.93;1.90;;;18.50;37.70;;;;;;6330635;28;20464;-63
2021/05/08 12:36:13;;;;;;;2.60;1.60;;;18.30;38.40;;;;;;6341222;27;20485;-65
2021/05/08 12:39:20;;;;;;;2.93;2.33;;;18.40;39.00;;;;;;6340885;28;20468;-64
2021/05/08 12:42:40;;;;;;;3.47;2.80;;;18.50;39.20;;;;;;6340642;28;20820;-64
2021/05/08 12:46:00;;;;;;;2.60;1.90;;;18.40;39.20;;;;;;6333620;28;20824;-64
2021/05/08 12:49:06;;;;;;;2.20;2.00;;;17.80;40.20;;;;;;6339862;28;20471;-63
2021/05/08 12:52:24;;;;;;;2.20;2.00;;;17.70;40.80;;;;;;6327564;28;20443;-64
2021/05/08 12:55:27;;;;;;;5.53;2.67;;;17.60;41.20;;;;;;6327891;28;20456;-64
2021/05/08 12:58:36;;;;;;;3.23;2.20;;;17.90;41.90;;;;;;6327689;28;20471;-64
2021/05/08 13:01:41;;;;;;;3.90;2.47;;;18.20;42.10;;;;;;6327094;28;20483;-68
2021/05/08 13:04:46;;;;;;;1.80;1.67;;;18.30;41.80;;;;;;6325329;28;20464;-63
2021/05/08 13:07:59;;;;;;;1.77;1.67;;;18.40;42.60;;;;;;6323829;28;20464;-64
2021/05/08 13:11:01;;;;;;;1.90;1.80;;;18.10;41.40;;;;;;6323820;28;20546;-64
2021/05/08 13:14:21;;;;;;;2.83;2.10;;;18.10;41.60;;;;;;6324116;28;20461;-64
2021/05/08 13:17:25;;;;;;;2.10;2.00;;;18.20;42.00;;;;;;6324425;28;20469;-64
2021/05/08 13:20:31;;;;;;;2.37;2.17;;;18.00;42.00;;;;;;6315969;28;20517;-64
2021/05/08 13:23:34;;;;;;;2.13;1.90;;;18.10;42.50;;;;;;6326988;28;20470;-64
2021/05/08 13:26:39;;;;;;;2.80;2.07;;;18.10;42.50;;;;;;6326615;28;20475;-64
2021/05/08 13:29:42;;;;;;;3.60;1.97;;;18.20;43.00;;;;;;6326924;28;20555;-64
2021/05/08 13:32:47;;;;;;;2.03;1.80;;;17.90;43.90;;;;;;6326331;28;20468;-64
2021/05/08 13:35:49;;;;;;;2.00;1.80;;;18.00;43.70;;;;;;6326930;28;21013;-64
2021/05/08 13:38:51;;;;;;;1.73;1.63;;;17.90;43.20;;;;;;6326232;28;20464;-65
2021/05/08 13:41:54;;;;;;;1.50;1.40;;;17.80;43.40;;;;;;6326287;28;20468;-63
2021/05/08 13:44:57;;;;;;;4.10;2.30;;;18.10;43.50;;;;;;6326493;28;20470;-63
2021/05/08 13:47:59;;;;;;;1.90;1.80;;;18.00;44.50;;;;;;6326253;28;20460;-64
2021/05/08 13:51:01;;;;;;;2.43;1.73;;;18.00;44.70;;;;;;6326249;28;20800;-64
2021/05/08 13:54:04;;;;;;;2.33;1.70;;;18.10;44.20;;;;;;6325792;28;20476;-64
2021/05/08 13:57:06;;;;;;;2.10;1.60;;;18.10;44.90;;;;;;6326252;28;20479;-63
2021/05/08 14:00:12;;;;;;;2.07;1.90;;;18.20;44.90;;;;;;6325780;28;20487;-63
2021/05/08 14:03:14;;;;;;;1.90;1.63;;;18.30;45.90;;;;;;6326217;28;20535;-63
2021/05/08 14:06:16;;;;;;;3.20;1.60;;;18.30;45.40;;;;;;6325902;28;20464;-64
2021/05/08 14:09:30;;;;;;;2.33;1.80;;;18.30;44.70;;;;;;6325956;28;20988;-63
2021/05/08 14:12:33;;;;;;;2.03;1.93;;;18.20;45.40;;;;;;6325610;28;20467;-63
2021/05/08 14:15:36;;;;;;;2.00;1.90;;;18.00;46.50;;;;;;6325587;28;20483;-63
2021/05/08 14:18:38;;;;;;;4.13;2.17;;;18.00;45.70;;;;;;6325570;28;20460;-63
2021/05/08 14:21:41;;;;;;;1.97;1.87;;;17.80;45.60;;;;;;6325683;28;20483;-63
2021/05/08 14:24:45;;;;;;;1.73;1.57;;;17.80;45.20;;;;;;6316395;28;20861;-63
2021/05/08 14:27:48;;;;;;;2.80;1.93;;;18.00;46.10;;;;;;6325370;28;20472;-65
2021/05/08 14:30:51;;;;;;;2.80;2.60;;;18.00;45.70;;;;;;6324349;28;20468;-64
2021/05/08 14:33:53;;;;;;;1.67;1.57;;;18.10;46.00;;;;;;6324742;28;20476;-64
2021/05/08 14:36:55;;;;;;;3.63;2.10;;;18.10;46.30;;;;;;6324967;28;20472;-64
2021/05/08 14:39:57;;;;;;;2.00;1.73;;;18.00;46.00;;;;;;6324383;28;20483;-64
2021/05/08 14:42:59;;;;;;;1.90;1.60;;;18.00;46.10;;;;;;6324969;28;20478;-63
2021/05/08 14:46:02;;;;;;;1.80;1.70;;;18.20;45.10;;;;;;6324573;28;20478;-64
2021/05/08 14:49:05;;;;;;;3.40;1.33;;;18.20;44.80;;;;;;6324805;28;20806;-64
2021/05/08 14:52:07;;;;;;;1.60;1.50;;;18.10;44.00;;;;;;6324044;28;20448;-64
2021/05/08 14:55:11;;;;;;;1.80;1.70;;;18.20;44.00;;;;;;6324866;28;20484;-64
2021/05/08 14:58:13;;;;;;;1.70;1.60;;;18.20;44.60;;;;;;6324770;28;20452;-64
2021/05/08 15:01:16;;;;;;;3.37;1.77;;;18.30;46.00;;;;;;6324424;28;20465;-64
2021/05/08 15:04:19;;;;;;;1.87;1.40;;;18.20;47.30;;;;;;6324533;28;20440;-63
2021/05/08 15:07:21;;;;;;;1.63;1.53;;;18.20;47.60;;;;;;6324155;28;20440;-63
2021/05/08 15:10:26;;;;;;;3.27;1.80;;;18.10;47.20;;;;;;6324647;28;20464;-62
2021/05/08 15:13:28;;;;;;;1.80;1.70;;;18.10;46.90;;;;;;6323922;28;20924;-63
2021/05/08 15:16:32;;;;;;;3.90;1.50;;;18.10;45.70;;;;;;6324470;28;20787;-64
2021/05/08 15:19:34;;;;;;;1.73;1.63;;;18.10;46.20;;;;;;6324153;28;20483;-64
2021/05/08 15:22:38;;;;;;;1.83;1.53;;;18.10;47.80;;;;;;6324275;28;20795;-64
2021/05/08 15:25:40;;;;;;;1.77;1.67;;;18.10;48.10;;;;;;6314553;28;20800;-63
2021/05/08 15:28:42;;;;;;;1.50;1.40;;;18.00;48.20;;;;;;6324157;28;20478;-64
2021/05/08 15:31:46;;;;;;;2.17;1.53;;;17.90;48.60;;;;;;6323547;28;20472;-63
2021/05/08 15:34:48;;;;;;;1.90;1.50;;;17.80;49.20;;;;;;6324006;28;20922;-64
2021/05/08 15:37:51;;;;;;;2.20;1.67;;;17.80;48.50;;;;;;6324410;28;20468;-63
2021/05/08 15:40:54;;;;;;;1.57;1.47;;;18.00;48.70;;;;;;6323355;28;20957;-64
2021/05/08 15:43:56;;;;;;;1.50;1.40;;;18.10;48.70;;;;;;6323867;28;20464;-63
2021/05/08 15:47:04;;;;;;;1.73;1.63;;;18.20;48.90;;;;;;6323815;28;20519;-63
2021/05/08 15:50:07;;;;;;;3.83;1.97;;;18.20;48.70;;;;;;6323960;28;20480;-64
2021/05/08 15:53:10;;;;;;;2.50;2.13;;;18.20;48.70;;;;;;6323609;28;20473;-64
2021/05/08 15:56:12;;;;;;;2.40;1.40;;;18.20;48.40;;;;;;6323913;28;20460;-64
2021/05/08 15:59:14;;;;;;;1.47;1.27;;;18.10;48.00;;;;;;6323516;28;20493;-64
2021/05/08 16:02:17;;;;;;;1.57;1.47;;;18.10;48.30;;;;;;6323891;28;20465;-64
2021/05/08 16:05:20;;;;;;;1.93;1.83;;;18.10;48.30;;;;;;6323659;28;20463;-64